sensor_id;sensor_type;location;lat;lon;timestamp;P1;durP1;ratioP1;P2;durP2;ratioP2
16975;SDS011;8604;48.148;-1.786;2023-04-21T00:01:09;11.43;;;4.90;;
16975;SDS011;8604;48.148;-1.786;2023-04-21T00:03:38;8.63;;;4.90;;
16975;SDS011;8604;48.148;-1.786;2023-04-21T00:06:07;12.20;;;5.40;;
16975;SDS011;8604;48.148;-1.786;2023-04-21T00:08:36;9.30;;;4.93;;
16975;SDS011;8604;48.148;-1.786;2023-04-21T00:11:07;11.97;;;5.47;;
16975;SDS011;8604;48.148;-1.786;2023-04-21T00:13:35;11.77;;;4.93;;
16975;SDS011;8604;48.148;-1.786;2023-04-21T00:16:04;8.83;;;4.83;;
16975;SDS011;8604;48.148;-1.786;2023-04-21T00:18:33;9.47;;;5.50;;
16975;SDS011;8604;48.148;-1.786;2023-04-21T00:21:02;8.80;;;4.73;;
16975;SDS011;8604;48.148;-1.786;2023-04-21T00:23:30;10.43;;;5.23;;
16975;SDS011;8604;48.148;-1.786;2023-04-21T00:25:58;9.10;;;5.63;;
16975;SDS011;8604;48.148;-1.786;2023-04-21T00:28:30;11.30;;;5.77;;
16975;SDS011;8604;48.148;-1.786;2023-04-21T00:30:58;11.37;;;5.70;;
16975;SDS011;8604;48.148;-1.786;2023-04-21T00:33:26;11.13;;;6.10;;
16975;SDS011;8604;48.148;-1.786;2023-04-21T00:35:55;12.07;;;5.77;;
16975;SDS011;8604;48.148;-1.786;2023-04-21T00:38:26;10.00;;;5.57;;
16975;SDS011;8604;48.148;-1.786;2023-04-21T00:40:54;10.07;;;6.20;;
16975;SDS011;8604;48.148;-1.786;2023-04-21T00:43:22;11.83;;;6.47;;
16975;SDS011;8604;48.148;-1.786;2023-04-21T00:45:54;12.50;;;6.30;;
16975;SDS011;8604;48.148;-1.786;2023-04-21T00:48:22;11.13;;;6.50;;
16975;SDS011;8604;48.148;-1.786;2023-04-21T00:50:51;11.13;;;6.87;;
16975;SDS011;8604;48.148;-1.786;2023-04-21T00:53:19;13.97;;;6.67;;
16975;SDS011;8604;48.148;-1.786;2023-04-21T00:55:49;13.07;;;6.80;;
16975;SDS011;8604;48.148;-1.786;2023-04-21T00:58:18;10.80;;;7.03;;
16975;SDS011;8604;48.148;-1.786;2023-04-21T01:00:47;11.67;;;6.90;;
16975;SDS011;8604;48.148;-1.786;2023-04-21T01:03:16;12.30;;;6.83;;
16975;SDS011;8604;48.148;-1.786;2023-04-21T01:05:45;11.50;;;7.00;;
16975;SDS011;8604;48.148;-1.786;2023-04-21T01:08:13;11.97;;;6.90;;
16975;SDS011;8604;48.148;-1.786;2023-04-21T01:10:42;12.13;;;7.13;;
16975;SDS011;8604;48.148;-1.786;2023-04-21T01:13:11;10.53;;;6.93;;
16975;SDS011;8604;48.148;-1.786;2023-04-21T01:15:39;13.47;;;7.07;;
16975;SDS011;8604;48.148;-1.786;2023-04-21T01:18:08;12.77;;;7.67;;
16975;SDS011;8604;48.148;-1.786;2023-04-21T01:20:37;12.70;;;8.10;;
16975;SDS011;8604;48.148;-1.786;2023-04-21T01:23:07;11.93;;;7.67;;
16975;SDS011;8604;48.148;-1.786;2023-04-21T01:25:35;11.97;;;7.90;;
16975;SDS011;8604;48.148;-1.786;2023-04-21T01:28:04;13.80;;;7.80;;
16975;SDS011;8604;48.148;-1.786;2023-04-21T01:30:32;14.53;;;8.27;;
16975;SDS011;8604;48.148;-1.786;2023-04-21T01:33:00;14.30;;;8.10;;
16975;SDS011;8604;48.148;-1.786;2023-04-21T01:35:29;12.37;;;7.90;;
16975;SDS011;8604;48.148;-1.786;2023-04-21T01:37:57;13.27;;;7.50;;
16975;SDS011;8604;48.148;-1.786;2023-04-21T01:40:28;13.33;;;8.47;;
16975;SDS011;8604;48.148;-1.786;2023-04-21T01:42:56;12.87;;;8.60;;
16975;SDS011;8604;48.148;-1.786;2023-04-21T01:45:25;14.40;;;8.70;;
16975;SDS011;8604;48.148;-1.786;2023-04-21T01:47:53;14.57;;;8.50;;
16975;SDS011;8604;48.148;-1.786;2023-04-21T01:50:21;11.90;;;8.57;;
16975;SDS011;8604;48.148;-1.786;2023-04-21T01:52:50;16.30;;;8.60;;
16975;SDS011;8604;48.148;-1.786;2023-04-21T01:55:18;13.37;;;8.27;;
16975;SDS011;8604;48.148;-1.786;2023-04-21T01:57:48;13.83;;;8.53;;
16975;SDS011;8604;48.148;-1.786;2023-04-21T02:00:17;11.30;;;8.10;;
16975;SDS011;8604;48.148;-1.786;2023-04-21T02:02:46;16.03;;;8.50;;
16975;SDS011;8604;48.148;-1.786;2023-04-21T02:05:15;13.10;;;8.70;;
16975;SDS011;8604;48.148;-1.786;2023-04-21T02:07:44;13.50;;;8.50;;
16975;SDS011;8604;48.148;-1.786;2023-04-21T02:10:13;13.27;;;8.37;;
16975;SDS011;8604;48.148;-1.786;2023-04-21T02:12:42;13.07;;;8.93;;
16975;SDS011;8604;48.148;-1.786;2023-04-21T02:15:12;14.40;;;8.73;;
16975;SDS011;8604;48.148;-1.786;2023-04-21T02:17:41;15.73;;;9.10;;
16975;SDS011;8604;48.148;-1.786;2023-04-21T02:20:10;18.73;;;9.60;;
16975;SDS011;8604;48.148;-1.786;2023-04-21T02:22:39;13.97;;;8.97;;
16975;SDS011;8604;48.148;-1.786;2023-04-21T02:25:07;12.87;;;8.80;;
16975;SDS011;8604;48.148;-1.786;2023-04-21T02:27:37;14.70;;;9.00;;
16975;SDS011;8604;48.148;-1.786;2023-04-21T02:30:06;18.27;;;9.67;;
16975;SDS011;8604;48.148;-1.786;2023-04-21T02:32:36;17.47;;;9.90;;
16975;SDS011;8604;48.148;-1.786;2023-04-21T02:35:05;12.27;;;9.00;;
16975;SDS011;8604;48.148;-1.786;2023-04-21T02:37:34;13.77;;;9.10;;
16975;SDS011;8604;48.148;-1.786;2023-04-21T02:40:02;14.33;;;9.27;;
16975;SDS011;8604;48.148;-1.786;2023-04-21T02:42:32;12.93;;;9.50;;
16975;SDS011;8604;48.148;-1.786;2023-04-21T02:45:00;14.37;;;9.37;;
16975;SDS011;8604;48.148;-1.786;2023-04-21T02:47:29;13.87;;;9.27;;
16975;SDS011;8604;48.148;-1.786;2023-04-21T02:49:58;12.90;;;9.70;;
16975;SDS011;8604;48.148;-1.786;2023-04-21T02:52:27;15.40;;;10.00;;
16975;SDS011;8604;48.148;-1.786;2023-04-21T02:54:55;15.90;;;10.50;;
16975;SDS011;8604;48.148;-1.786;2023-04-21T02:57:24;15.53;;;9.80;;
16975;SDS011;8604;48.148;-1.786;2023-04-21T02:59:52;16.67;;;10.50;;
16975;SDS011;8604;48.148;-1.786;2023-04-21T03:02:20;15.63;;;10.07;;
16975;SDS011;8604;48.148;-1.786;2023-04-21T03:04:49;13.33;;;9.67;;
16975;SDS011;8604;48.148;-1.786;2023-04-21T03:07:19;14.13;;;10.30;;
16975;SDS011;8604;48.148;-1.786;2023-04-21T03:09:48;15.03;;;9.73;;
16975;SDS011;8604;48.148;-1.786;2023-04-21T03:12:16;17.13;;;10.73;;
16975;SDS011;8604;48.148;-1.786;2023-04-21T03:14:44;15.57;;;10.07;;
16975;SDS011;8604;48.148;-1.786;2023-04-21T03:17:13;14.50;;;9.77;;
16975;SDS011;8604;48.148;-1.786;2023-04-21T03:19:41;17.93;;;10.43;;
16975;SDS011;8604;48.148;-1.786;2023-04-21T03:22:10;15.83;;;10.17;;
16975;SDS011;8604;48.148;-1.786;2023-04-21T03:24:40;14.20;;;9.67;;
16975;SDS011;8604;48.148;-1.786;2023-04-21T03:27:08;14.83;;;10.40;;
16975;SDS011;8604;48.148;-1.786;2023-04-21T03:29:36;18.90;;;10.30;;
16975;SDS011;8604;48.148;-1.786;2023-04-21T03:32:05;16.13;;;11.37;;
16975;SDS011;8604;48.148;-1.786;2023-04-21T03:34:33;16.63;;;11.27;;
16975;SDS011;8604;48.148;-1.786;2023-04-21T03:37:03;14.57;;;10.60;;
16975;SDS011;8604;48.148;-1.786;2023-04-21T03:39:31;16.07;;;11.10;;
16975;SDS011;8604;48.148;-1.786;2023-04-21T03:42:02;16.23;;;11.50;;
16975;SDS011;8604;48.148;-1.786;2023-04-21T03:44:31;15.70;;;11.73;;
16975;SDS011;8604;48.148;-1.786;2023-04-21T03:47:00;16.73;;;11.27;;
16975;SDS011;8604;48.148;-1.786;2023-04-21T03:49:30;18.97;;;12.30;;
16975;SDS011;8604;48.148;-1.786;2023-04-21T03:52:00;16.97;;;12.27;;
16975;SDS011;8604;48.148;-1.786;2023-04-21T03:54:28;17.60;;;11.27;;
16975;SDS011;8604;48.148;-1.786;2023-04-21T03:56:57;18.00;;;12.43;;
16975;SDS011;8604;48.148;-1.786;2023-04-21T03:59:26;17.47;;;12.23;;
16975;SDS011;8604;48.148;-1.786;2023-04-21T04:01:55;16.90;;;11.57;;
16975;SDS011;8604;48.148;-1.786;2023-04-21T04:04:23;17.63;;;12.77;;
16975;SDS011;8604;48.148;-1.786;2023-04-21T04:06:52;17.00;;;12.20;;
16975;SDS011;8604;48.148;-1.786;2023-04-21T04:09:20;19.03;;;12.57;;
16975;SDS011;8604;48.148;-1.786;2023-04-21T04:11:48;17.27;;;12.20;;
16975;SDS011;8604;48.148;-1.786;2023-04-21T04:14:17;17.73;;;12.60;;
16975;SDS011;8604;48.148;-1.786;2023-04-21T04:16:47;17.77;;;11.77;;
16975;SDS011;8604;48.148;-1.786;2023-04-21T04:19:15;17.17;;;12.00;;
16975;SDS011;8604;48.148;-1.786;2023-04-21T04:21:44;16.37;;;11.63;;
16975;SDS011;8604;48.148;-1.786;2023-04-21T04:24:14;16.83;;;12.43;;
16975;SDS011;8604;48.148;-1.786;2023-04-21T04:26:42;20.77;;;12.63;;
16975;SDS011;8604;48.148;-1.786;2023-04-21T04:29:11;17.17;;;11.93;;
16975;SDS011;8604;48.148;-1.786;2023-04-21T04:31:39;16.47;;;12.30;;
16975;SDS011;8604;48.148;-1.786;2023-04-21T04:34:09;15.60;;;12.23;;
16975;SDS011;8604;48.148;-1.786;2023-04-21T04:36:37;16.73;;;12.47;;
16975;SDS011;8604;48.148;-1.786;2023-04-21T04:39:06;19.97;;;12.30;;
16975;SDS011;8604;48.148;-1.786;2023-04-21T04:41:35;16.77;;;12.37;;
16975;SDS011;8604;48.148;-1.786;2023-04-21T04:44:04;20.10;;;13.33;;
16975;SDS011;8604;48.148;-1.786;2023-04-21T04:46:33;16.57;;;12.23;;
16975;SDS011;8604;48.148;-1.786;2023-04-21T04:49:01;16.67;;;12.40;;
16975;SDS011;8604;48.148;-1.786;2023-04-21T04:51:31;17.70;;;12.57;;
16975;SDS011;8604;48.148;-1.786;2023-04-21T04:54:00;17.17;;;12.70;;
16975;SDS011;8604;48.148;-1.786;2023-04-21T04:56:28;20.20;;;13.57;;
16975;SDS011;8604;48.148;-1.786;2023-04-21T04:58:57;17.27;;;13.47;;
16975;SDS011;8604;48.148;-1.786;2023-04-21T05:01:25;18.50;;;13.20;;
16975;SDS011;8604;48.148;-1.786;2023-04-21T05:03:56;18.40;;;13.00;;
16975;SDS011;8604;48.148;-1.786;2023-04-21T05:06:25;20.87;;;13.87;;
16975;SDS011;8604;48.148;-1.786;2023-04-21T05:08:55;18.67;;;13.40;;
16975;SDS011;8604;48.148;-1.786;2023-04-21T05:11:23;18.90;;;13.27;;
16975;SDS011;8604;48.148;-1.786;2023-04-21T05:13:51;17.40;;;13.33;;
16975;SDS011;8604;48.148;-1.786;2023-04-21T05:16:20;17.97;;;12.80;;
16975;SDS011;8604;48.148;-1.786;2023-04-21T05:18:48;20.30;;;13.83;;
16975;SDS011;8604;48.148;-1.786;2023-04-21T05:21:22;18.30;;;13.97;;
16975;SDS011;8604;48.148;-1.786;2023-04-21T05:23:53;19.77;;;14.30;;
16975;SDS011;8604;48.148;-1.786;2023-04-21T05:26:23;19.80;;;14.27;;
16975;SDS011;8604;48.148;-1.786;2023-04-21T05:28:53;20.07;;;13.87;;
16975;SDS011;8604;48.148;-1.786;2023-04-21T05:31:21;19.70;;;14.03;;
16975;SDS011;8604;48.148;-1.786;2023-04-21T05:33:50;20.83;;;13.80;;
16975;SDS011;8604;48.148;-1.786;2023-04-21T05:36:19;19.20;;;14.57;;
16975;SDS011;8604;48.148;-1.786;2023-04-21T05:38:49;20.50;;;14.03;;
16975;SDS011;8604;48.148;-1.786;2023-04-21T05:41:21;20.60;;;13.70;;
16975;SDS011;8604;48.148;-1.786;2023-04-21T05:43:50;18.83;;;14.03;;
16975;SDS011;8604;48.148;-1.786;2023-04-21T05:46:21;22.60;;;15.20;;
16975;SDS011;8604;48.148;-1.786;2023-04-21T05:49:29;18.20;;;13.93;;
16975;SDS011;8604;48.148;-1.786;2023-04-21T05:52:39;19.03;;;13.90;;
16975;SDS011;8604;48.148;-1.786;2023-04-21T05:55:37;21.73;;;14.07;;
16975;SDS011;8604;48.148;-1.786;2023-04-21T05:58:58;19.80;;;14.13;;
16975;SDS011;8604;48.148;-1.786;2023-04-21T06:01:26;19.63;;;14.37;;
16975;SDS011;8604;48.148;-1.786;2023-04-21T06:04:02;18.47;;;14.20;;
16975;SDS011;8604;48.148;-1.786;2023-04-21T06:06:40;19.93;;;14.10;;
16975;SDS011;8604;48.148;-1.786;2023-04-21T06:09:23;20.93;;;14.37;;
16975;SDS011;8604;48.148;-1.786;2023-04-21T06:11:52;22.10;;;14.50;;
16975;SDS011;8604;48.148;-1.786;2023-04-21T06:14:27;21.57;;;14.83;;
16975;SDS011;8604;48.148;-1.786;2023-04-21T06:17:10;22.80;;;13.93;;
16975;SDS011;8604;48.148;-1.786;2023-04-21T06:19:42;19.07;;;14.13;;
16975;SDS011;8604;48.148;-1.786;2023-04-21T06:22:12;19.93;;;14.53;;
16975;SDS011;8604;48.148;-1.786;2023-04-21T06:25:11;22.00;;;15.80;;
16975;SDS011;8604;48.148;-1.786;2023-04-21T06:27:41;19.60;;;15.40;;
16975;SDS011;8604;48.148;-1.786;2023-04-21T06:30:15;22.93;;;16.13;;
16975;SDS011;8604;48.148;-1.786;2023-04-21T06:32:59;20.93;;;16.63;;
16975;SDS011;8604;48.148;-1.786;2023-04-21T06:35:44;20.93;;;15.30;;
16975;SDS011;8604;48.148;-1.786;2023-04-21T06:38:23;22.13;;;17.33;;
16975;SDS011;8604;48.148;-1.786;2023-04-21T06:40:58;23.13;;;16.67;;
16975;SDS011;8604;48.148;-1.786;2023-04-21T06:43:39;21.23;;;16.40;;
16975;SDS011;8604;48.148;-1.786;2023-04-21T06:46:10;24.73;;;17.70;;
16975;SDS011;8604;48.148;-1.786;2023-04-21T06:48:47;22.67;;;18.10;;
16975;SDS011;8604;48.148;-1.786;2023-04-21T06:51:15;22.93;;;17.90;;
16975;SDS011;8604;48.148;-1.786;2023-04-21T06:53:44;21.67;;;17.80;;
16975;SDS011;8604;48.148;-1.786;2023-04-21T06:56:12;20.60;;;18.40;;
16975;SDS011;8604;48.148;-1.786;2023-04-21T06:58:40;21.90;;;19.47;;
16975;SDS011;8604;48.148;-1.786;2023-04-21T07:01:10;24.70;;;20.27;;
16975;SDS011;8604;48.148;-1.786;2023-04-21T07:03:38;21.80;;;19.50;;
16975;SDS011;8604;48.148;-1.786;2023-04-21T07:06:07;22.20;;;19.80;;
16975;SDS011;8604;48.148;-1.786;2023-04-21T07:08:35;22.33;;;19.13;;
16975;SDS011;8604;48.148;-1.786;2023-04-21T07:11:04;21.07;;;18.83;;
16975;SDS011;8604;48.148;-1.786;2023-04-21T07:13:32;21.17;;;18.63;;
16975;SDS011;8604;48.148;-1.786;2023-04-21T07:16:00;21.87;;;18.60;;
16975;SDS011;8604;48.148;-1.786;2023-04-21T07:18:31;20.17;;;18.07;;
16975;SDS011;8604;48.148;-1.786;2023-04-21T07:21:00;23.10;;;19.50;;
16975;SDS011;8604;48.148;-1.786;2023-04-21T07:23:28;20.53;;;17.80;;
16975;SDS011;8604;48.148;-1.786;2023-04-21T07:25:56;20.47;;;17.73;;
16975;SDS011;8604;48.148;-1.786;2023-04-21T07:28:25;19.87;;;17.23;;
16975;SDS011;8604;48.148;-1.786;2023-04-21T07:30:53;21.13;;;18.10;;
16975;SDS011;8604;48.148;-1.786;2023-04-21T07:33:23;28.43;;;18.07;;
16975;SDS011;8604;48.148;-1.786;2023-04-21T07:35:54;18.17;;;16.27;;
16975;SDS011;8604;48.148;-1.786;2023-04-21T07:38:22;19.60;;;17.00;;
16975;SDS011;8604;48.148;-1.786;2023-04-21T07:40:51;19.60;;;17.60;;
16975;SDS011;8604;48.148;-1.786;2023-04-21T07:43:19;18.23;;;16.33;;
16975;SDS011;8604;48.148;-1.786;2023-04-21T07:45:47;18.37;;;16.47;;
16975;SDS011;8604;48.148;-1.786;2023-04-21T07:48:17;18.70;;;16.53;;
16975;SDS011;8604;48.148;-1.786;2023-04-21T07:50:46;18.63;;;16.70;;
16975;SDS011;8604;48.148;-1.786;2023-04-21T07:53:17;18.43;;;16.53;;
16975;SDS011;8604;48.148;-1.786;2023-04-21T07:55:45;19.80;;;17.80;;
16975;SDS011;8604;48.148;-1.786;2023-04-21T07:58:13;18.37;;;16.47;;
16975;SDS011;8604;48.148;-1.786;2023-04-21T08:00:42;21.63;;;17.97;;
16975;SDS011;8604;48.148;-1.786;2023-04-21T08:03:10;18.90;;;16.83;;
16975;SDS011;8604;48.148;-1.786;2023-04-21T08:05:39;20.77;;;18.77;;
16975;SDS011;8604;48.148;-1.786;2023-04-21T08:08:07;19.03;;;17.03;;
16975;SDS011;8604;48.148;-1.786;2023-04-21T08:10:37;18.43;;;16.63;;
16975;SDS011;8604;48.148;-1.786;2023-04-21T08:13:06;19.73;;;17.63;;
16975;SDS011;8604;48.148;-1.786;2023-04-21T08:15:34;19.93;;;18.03;;
16975;SDS011;8604;48.148;-1.786;2023-04-21T08:18:03;21.23;;;19.20;;
16975;SDS011;8604;48.148;-1.786;2023-04-21T08:20:31;19.93;;;18.03;;
16975;SDS011;8604;48.148;-1.786;2023-04-21T08:23:00;19.03;;;17.13;;
16975;SDS011;8604;48.148;-1.786;2023-04-21T08:25:28;20.23;;;18.33;;
16975;SDS011;8604;48.148;-1.786;2023-04-21T08:27:58;19.83;;;17.83;;
16975;SDS011;8604;48.148;-1.786;2023-04-21T08:30:27;17.83;;;16.03;;
16975;SDS011;8604;48.148;-1.786;2023-04-21T08:32:55;17.43;;;15.83;;
16975;SDS011;8604;48.148;-1.786;2023-04-21T08:35:24;20.10;;;18.20;;
16975;SDS011;8604;48.148;-1.786;2023-04-21T08:37:52;18.40;;;16.50;;
16975;SDS011;8604;48.148;-1.786;2023-04-21T08:40:20;17.73;;;16.03;;
16975;SDS011;8604;48.148;-1.786;2023-04-21T08:42:56;18.60;;;16.80;;
16975;SDS011;8604;48.148;-1.786;2023-04-21T08:45:27;16.23;;;14.53;;
16975;SDS011;8604;48.148;-1.786;2023-04-21T08:47:55;17.93;;;15.77;;
16975;SDS011;8604;48.148;-1.786;2023-04-21T08:50:27;18.73;;;16.83;;
16975;SDS011;8604;48.148;-1.786;2023-04-21T08:52:57;17.37;;;15.27;;
16975;SDS011;8604;48.148;-1.786;2023-04-21T08:55:27;17.87;;;16.00;;
16975;SDS011;8604;48.148;-1.786;2023-04-21T08:57:57;17.37;;;15.53;;
16975;SDS011;8604;48.148;-1.786;2023-04-21T09:00:26;17.70;;;15.83;;
16975;SDS011;8604;48.148;-1.786;2023-04-21T09:02:56;16.70;;;15.00;;
16975;SDS011;8604;48.148;-1.786;2023-04-21T09:05:28;18.33;;;16.43;;
16975;SDS011;8604;48.148;-1.786;2023-04-21T09:08:08;16.60;;;14.77;;
16975;SDS011;8604;48.148;-1.786;2023-04-21T09:10:45;15.97;;;14.37;;
16975;SDS011;8604;48.148;-1.786;2023-04-21T09:17:59;16.73;;;15.03;;
16975;SDS011;8604;48.148;-1.786;2023-04-21T09:20:28;17.90;;;16.07;;
16975;SDS011;8604;48.148;-1.786;2023-04-21T09:22:57;18.50;;;16.10;;
16975;SDS011;8604;48.148;-1.786;2023-04-21T09:25:25;17.60;;;15.40;;
16975;SDS011;8604;48.148;-1.786;2023-04-21T09:27:53;17.07;;;15.30;;
16975;SDS011;8604;48.148;-1.786;2023-04-21T09:30:22;16.90;;;15.20;;
16975;SDS011;8604;48.148;-1.786;2023-04-21T09:32:54;16.33;;;14.43;;
16975;SDS011;8604;48.148;-1.786;2023-04-21T09:35:27;15.83;;;14.23;;
16975;SDS011;8604;48.148;-1.786;2023-04-21T09:37:56;14.83;;;13.33;;
16975;SDS011;8604;48.148;-1.786;2023-04-21T09:40:25;15.80;;;14.20;;
16975;SDS011;8604;48.148;-1.786;2023-04-21T09:42:55;15.03;;;13.53;;
16975;SDS011;8604;48.148;-1.786;2023-04-21T09:45:25;15.33;;;13.73;;
16975;SDS011;8604;48.148;-1.786;2023-04-21T09:48:06;14.03;;;12.13;;
16975;SDS011;8604;48.148;-1.786;2023-04-21T09:50:38;14.83;;;12.07;;
16975;SDS011;8604;48.148;-1.786;2023-04-21T09:53:27;13.13;;;11.73;;
16975;SDS011;8604;48.148;-1.786;2023-04-21T09:56:01;13.33;;;11.93;;
16975;SDS011;8604;48.148;-1.786;2023-04-21T09:58:32;13.93;;;11.93;;
16975;SDS011;8604;48.148;-1.786;2023-04-21T10:01:08;11.90;;;10.70;;
16975;SDS011;8604;48.148;-1.786;2023-04-21T10:03:37;14.20;;;11.57;;
16975;SDS011;8604;48.148;-1.786;2023-04-21T10:06:08;11.87;;;10.67;;
16975;SDS011;8604;48.148;-1.786;2023-04-21T10:08:38;13.53;;;11.73;;
16975;SDS011;8604;48.148;-1.786;2023-04-21T10:11:08;14.37;;;11.93;;
16975;SDS011;8604;48.148;-1.786;2023-04-21T10:13:38;13.70;;;11.70;;
16975;SDS011;8604;48.148;-1.786;2023-04-21T10:16:09;12.97;;;11.57;;
16975;SDS011;8604;48.148;-1.786;2023-04-21T10:18:41;12.83;;;11.50;;
16975;SDS011;8604;48.148;-1.786;2023-04-21T10:21:16;11.77;;;10.57;;
16975;SDS011;8604;48.148;-1.786;2023-04-21T10:23:47;13.33;;;12.03;;
16975;SDS011;8604;48.148;-1.786;2023-04-21T10:26:22;12.17;;;10.97;;
16975;SDS011;8604;48.148;-1.786;2023-04-21T10:28:53;12.60;;;11.30;;
16975;SDS011;8604;48.148;-1.786;2023-04-21T10:31:24;13.00;;;11.70;;
16975;SDS011;8604;48.148;-1.786;2023-04-21T10:34:16;12.77;;;10.83;;
16975;SDS011;8604;48.148;-1.786;2023-04-21T10:39:42;13.17;;;11.87;;
16975;SDS011;8604;48.148;-1.786;2023-04-21T10:42:22;12.17;;;10.97;;
16975;SDS011;8604;48.148;-1.786;2023-04-21T10:44:59;12.57;;;11.27;;
16975;SDS011;8604;48.148;-1.786;2023-04-21T10:47:39;13.17;;;11.63;;
16975;SDS011;8604;48.148;-1.786;2023-04-21T10:50:11;13.50;;;12.23;;
16975;SDS011;8604;48.148;-1.786;2023-04-21T10:52:46;13.03;;;11.83;;
16975;SDS011;8604;48.148;-1.786;2023-04-21T10:55:26;12.43;;;11.23;;
16975;SDS011;8604;48.148;-1.786;2023-04-21T10:57:57;13.17;;;11.87;;
16975;SDS011;8604;48.148;-1.786;2023-04-21T11:00:29;12.03;;;10.83;;
16975;SDS011;8604;48.148;-1.786;2023-04-21T11:03:00;12.73;;;11.53;;
16975;SDS011;8604;48.148;-1.786;2023-04-21T11:05:31;12.10;;;10.90;;
16975;SDS011;8604;48.148;-1.786;2023-04-21T11:08:04;13.60;;;12.20;;
16975;SDS011;8604;48.148;-1.786;2023-04-21T11:10:45;11.97;;;10.67;;
16975;SDS011;8604;48.148;-1.786;2023-04-21T11:13:23;12.00;;;10.80;;
16975;SDS011;8604;48.148;-1.786;2023-04-21T11:15:55;11.20;;;10.00;;
16975;SDS011;8604;48.148;-1.786;2023-04-21T11:21:15;13.40;;;12.10;;
16975;SDS011;8604;48.148;-1.786;2023-04-21T11:23:50;14.63;;;12.73;;
16975;SDS011;8604;48.148;-1.786;2023-04-21T11:26:29;13.33;;;12.10;;
16975;SDS011;8604;48.148;-1.786;2023-04-21T11:29:00;12.23;;;11.03;;
16975;SDS011;8604;48.148;-1.786;2023-04-21T11:37:21;13.00;;;11.80;;
16975;SDS011;8604;48.148;-1.786;2023-04-21T11:39:58;14.00;;;12.70;;
16975;SDS011;8604;48.148;-1.786;2023-04-21T11:42:28;12.73;;;11.57;;
16975;SDS011;8604;48.148;-1.786;2023-04-21T11:44:57;14.03;;;12.63;;
16975;SDS011;8604;48.148;-1.786;2023-04-21T11:47:26;12.90;;;11.67;;
16975;SDS011;8604;48.148;-1.786;2023-04-21T11:50:09;13.27;;;12.07;;
16975;SDS011;8604;48.148;-1.786;2023-04-21T11:52:37;19.03;;;12.17;;
16975;SDS011;8604;48.148;-1.786;2023-04-21T11:55:11;14.27;;;12.97;;
16975;SDS011;8604;48.148;-1.786;2023-04-21T11:57:43;13.70;;;12.40;;
16975;SDS011;8604;48.148;-1.786;2023-04-21T12:00:12;13.50;;;12.20;;
16975;SDS011;8604;48.148;-1.786;2023-04-21T12:02:41;13.87;;;12.57;;
16975;SDS011;8604;48.148;-1.786;2023-04-21T12:05:11;13.50;;;12.30;;
16975;SDS011;8604;48.148;-1.786;2023-04-21T12:07:43;14.03;;;12.63;;
16975;SDS011;8604;48.148;-1.786;2023-04-21T12:10:16;13.97;;;12.57;;
16975;SDS011;8604;48.148;-1.786;2023-04-21T12:16:30;14.20;;;12.90;;
16975;SDS011;8604;48.148;-1.786;2023-04-21T12:18:59;13.73;;;12.37;;
16975;SDS011;8604;48.148;-1.786;2023-04-21T12:21:27;13.13;;;11.83;;
16975;SDS011;8604;48.148;-1.786;2023-04-21T12:23:56;13.67;;;12.37;;
16975;SDS011;8604;48.148;-1.786;2023-04-21T12:26:25;12.77;;;11.57;;
16975;SDS011;8604;48.148;-1.786;2023-04-21T12:32:09;13.90;;;12.50;;
16975;SDS011;8604;48.148;-1.786;2023-04-21T12:34:38;13.83;;;12.50;;
16975;SDS011;8604;48.148;-1.786;2023-04-21T12:37:07;12.80;;;11.57;;
16975;SDS011;8604;48.148;-1.786;2023-04-21T12:39:36;13.77;;;12.37;;
16975;SDS011;8604;48.148;-1.786;2023-04-21T12:42:06;13.13;;;11.93;;
16975;SDS011;8604;48.148;-1.786;2023-04-21T12:44:37;12.60;;;11.40;;
16975;SDS011;8604;48.148;-1.786;2023-04-21T12:47:06;13.73;;;12.33;;
16975;SDS011;8604;48.148;-1.786;2023-04-21T12:49:35;13.00;;;11.70;;
16975;SDS011;8604;48.148;-1.786;2023-04-21T12:52:04;12.47;;;11.17;;
16975;SDS011;8604;48.148;-1.786;2023-04-21T12:54:33;11.13;;;10.13;;
16975;SDS011;8604;48.148;-1.786;2023-04-21T12:57:41;12.70;;;11.40;;
16975;SDS011;8604;48.148;-1.786;2023-04-21T13:00:11;13.97;;;12.67;;
16975;SDS011;8604;48.148;-1.786;2023-04-21T13:02:40;12.60;;;11.40;;
16975;SDS011;8604;48.148;-1.786;2023-04-21T13:05:10;13.90;;;12.60;;
16975;SDS011;8604;48.148;-1.786;2023-04-21T14:07:25;11.50;;;10.30;;
16975;SDS011;8604;48.148;-1.786;2023-04-21T14:09:53;11.10;;;9.90;;
16975;SDS011;8604;48.148;-1.786;2023-04-21T14:12:23;11.73;;;10.13;;
16975;SDS011;8604;48.148;-1.786;2023-04-21T14:14:52;11.67;;;10.47;;
16975;SDS011;8604;48.148;-1.786;2023-04-21T14:17:20;12.87;;;10.43;;
16975;SDS011;8604;48.148;-1.786;2023-04-21T14:19:49;11.53;;;10.33;;
16975;SDS011;8604;48.148;-1.786;2023-04-21T14:22:20;11.33;;;10.13;;
16975;SDS011;8604;48.148;-1.786;2023-04-21T14:24:51;11.70;;;10.00;;
16975;SDS011;8604;48.148;-1.786;2023-04-21T14:27:19;12.00;;;9.63;;
16975;SDS011;8604;48.148;-1.786;2023-04-21T14:29:50;11.20;;;10.00;;
16975;SDS011;8604;48.148;-1.786;2023-04-21T14:32:18;11.33;;;9.73;;
16975;SDS011;8604;48.148;-1.786;2023-04-21T14:34:47;10.87;;;9.77;;
16975;SDS011;8604;48.148;-1.786;2023-04-21T14:37:19;9.87;;;8.87;;
16975;SDS011;8604;48.148;-1.786;2023-04-21T14:39:48;9.87;;;8.87;;
16975;SDS011;8604;48.148;-1.786;2023-04-21T14:42:18;11.60;;;10.17;;
16975;SDS011;8604;48.148;-1.786;2023-04-21T14:44:46;11.77;;;10.10;;
16975;SDS011;8604;48.148;-1.786;2023-04-21T14:47:15;11.33;;;9.73;;
16975;SDS011;8604;48.148;-1.786;2023-04-21T14:49:43;11.40;;;10.20;;
16975;SDS011;8604;48.148;-1.786;2023-04-21T14:52:12;10.87;;;9.77;;
16975;SDS011;8604;48.148;-1.786;2023-04-21T14:54:41;12.07;;;10.33;;
16975;SDS011;8604;48.148;-1.786;2023-04-21T14:57:09;11.67;;;10.47;;
16975;SDS011;8604;48.148;-1.786;2023-04-21T14:59:48;11.77;;;10.47;;
16975;SDS011;8604;48.148;-1.786;2023-04-21T15:02:17;10.27;;;9.17;;
16975;SDS011;8604;48.148;-1.786;2023-04-21T15:04:47;12.73;;;10.83;;
16975;SDS011;8604;48.148;-1.786;2023-04-21T15:07:16;12.13;;;10.83;;
16975;SDS011;8604;48.148;-1.786;2023-04-21T15:09:50;10.93;;;9.10;;
16975;SDS011;8604;48.148;-1.786;2023-04-21T15:12:21;10.57;;;9.47;;
16975;SDS011;8604;48.148;-1.786;2023-04-21T15:14:50;9.93;;;8.73;;
16975;SDS011;8604;48.148;-1.786;2023-04-21T15:17:19;10.20;;;8.63;;
16975;SDS011;8604;48.148;-1.786;2023-04-21T15:19:48;10.23;;;9.07;;
16975;SDS011;8604;48.148;-1.786;2023-04-21T15:22:16;10.97;;;9.17;;
16975;SDS011;8604;48.148;-1.786;2023-04-21T15:24:45;11.13;;;9.93;;
16975;SDS011;8604;48.148;-1.786;2023-04-21T15:27:13;10.37;;;9.27;;
16975;SDS011;8604;48.148;-1.786;2023-04-21T15:29:42;10.80;;;9.60;;
16975;SDS011;8604;48.148;-1.786;2023-04-21T15:32:13;11.50;;;10.30;;
16975;SDS011;8604;48.148;-1.786;2023-04-21T15:34:42;11.17;;;9.40;;
16975;SDS011;8604;48.148;-1.786;2023-04-21T15:37:13;12.13;;;9.93;;
16975;SDS011;8604;48.148;-1.786;2023-04-21T15:39:42;10.00;;;8.83;;
16975;SDS011;8604;48.148;-1.786;2023-04-21T15:42:11;10.33;;;9.30;;
16975;SDS011;8604;48.148;-1.786;2023-04-21T15:44:42;10.80;;;9.70;;
16975;SDS011;8604;48.148;-1.786;2023-04-21T15:47:14;10.63;;;9.53;;
16975;SDS011;8604;48.148;-1.786;2023-04-21T15:49:43;11.40;;;9.90;;
16975;SDS011;8604;48.148;-1.786;2023-04-21T15:52:11;10.63;;;9.43;;
16975;SDS011;8604;48.148;-1.786;2023-04-21T15:54:39;11.70;;;9.23;;
16975;SDS011;8604;48.148;-1.786;2023-04-21T16:01:16;11.93;;;9.83;;
16975;SDS011;8604;48.148;-1.786;2023-04-21T16:03:47;11.43;;;10.23;;
16975;SDS011;8604;48.148;-1.786;2023-04-21T16:10:04;11.80;;;10.60;;
16975;SDS011;8604;48.148;-1.786;2023-04-21T16:12:33;13.10;;;10.57;;
16975;SDS011;8604;48.148;-1.786;2023-04-21T16:15:03;11.50;;;9.90;;
16975;SDS011;8604;48.148;-1.786;2023-04-21T16:17:50;12.27;;;10.20;;